sensor_id;sensor_type;location;lat;lon;timestamp;pressure;altitude;pressure_sealevel;temperature;humidity
28004;BME280;15330;51.234;6.754;2022-10-10T00:01:32;101115.03;;;11.37;65.83
28004;BME280;15330;51.234;6.754;2022-10-10T00:03:58;101123.88;;;11.03;66.76
28004;BME280;15330;51.234;6.754;2022-10-10T00:06:24;101114.78;;;11.22;66.15
28004;BME280;15330;51.234;6.754;2022-10-10T00:08:50;101110.78;;;11.26;65.75
28004;BME280;15330;51.234;6.754;2022-10-10T00:11:17;101114.47;;;11.25;65.97
28004;BME280;15330;51.234;6.754;2022-10-10T00:13:43;101110.38;;;11.13;66.63
28004;BME280;15330;51.234;6.754;2022-10-10T00:16:09;101113.50;;;11.34;65.96
28004;BME280;15330;51.234;6.754;2022-10-10T00:18:35;101117.50;;;10.96;67.46
28004;BME280;15330;51.234;6.754;2022-10-10T00:21:00;101107.00;;;11.03;67.42
28004;BME280;15330;51.234;6.754;2022-10-10T00:23:26;101106.72;;;11.14;66.81
28004;BME280;15330;51.234;6.754;2022-10-10T00:25:51;101112.06;;;11.14;66.83
28004;BME280;15330;51.234;6.754;2022-10-10T00:28:17;101109.34;;;11.06;67.13
28004;BME280;15330;51.234;6.754;2022-10-10T00:30:43;101113.06;;;11.13;67.10
28004;BME280;15330;51.234;6.754;2022-10-10T00:33:09;101124.41;;;11.07;67.65
28004;BME280;15330;51.234;6.754;2022-10-10T00:35:34;101113.03;;;11.05;67.56
28004;BME280;15330;51.234;6.754;2022-10-10T00:38:00;101118.69;;;11.02;67.66
28004;BME280;15330;51.234;6.754;2022-10-10T00:40:26;101109.47;;;10.96;68.14
28004;BME280;15330;51.234;6.754;2022-10-10T00:42:52;101116.34;;;10.99;68.08
28004;BME280;15330;51.234;6.754;2022-10-10T00:45:31;101111.63;;;10.93;68.11
28004;BME280;15330;51.234;6.754;2022-10-10T00:50:27;101114.94;;;10.87;68.32
28004;BME280;15330;51.234;6.754;2022-10-10T00:52:53;101104.72;;;10.90;68.06
28004;BME280;15330;51.234;6.754;2022-10-10T00:55:20;101106.09;;;10.94;68.14
28004;BME280;15330;51.234;6.754;2022-10-10T00:57:46;101096.81;;;10.81;68.75
28004;BME280;15330;51.234;6.754;2022-10-10T01:00:12;101100.72;;;10.86;68.40
28004;BME280;15330;51.234;6.754;2022-10-10T01:02:37;101100.91;;;10.93;68.47
28004;BME280;15330;51.234;6.754;2022-10-10T01:05:03;101090.25;;;11.01;67.79
28004;BME280;15330;51.234;6.754;2022-10-10T01:07:29;101090.81;;;10.79;68.30
28004;BME280;15330;51.234;6.754;2022-10-10T01:09:59;101091.31;;;10.82;68.30
28004;BME280;15330;51.234;6.754;2022-10-10T01:12:26;101087.88;;;10.90;68.32
28004;BME280;15330;51.234;6.754;2022-10-10T01:15:22;101085.34;;;10.88;68.10
28004;BME280;15330;51.234;6.754;2022-10-10T01:17:56;101083.81;;;10.86;68.74
28004;BME280;15330;51.234;6.754;2022-10-10T01:20:47;101080.56;;;11.00;67.70
28004;BME280;15330;51.234;6.754;2022-10-10T01:23:22;101081.38;;;11.00;68.05
28004;BME280;15330;51.234;6.754;2022-10-10T01:28:44;101078.31;;;10.87;68.07
28004;BME280;15330;51.234;6.754;2022-10-10T01:31:13;101080.97;;;10.87;68.04
28004;BME280;15330;51.234;6.754;2022-10-10T01:36:37;101074.78;;;10.87;68.50
28004;BME280;15330;51.234;6.754;2022-10-10T01:39:17;101076.19;;;10.73;68.65
28004;BME280;15330;51.234;6.754;2022-10-10T01:42:09;101065.91;;;10.86;68.22
28004;BME280;15330;51.234;6.754;2022-10-10T01:44:43;101071.53;;;10.75;68.85
28004;BME280;15330;51.234;6.754;2022-10-10T01:47:10;101065.91;;;10.60;69.33
28004;BME280;15330;51.234;6.754;2022-10-10T01:49:35;101067.09;;;10.58;69.55
28004;BME280;15330;51.234;6.754;2022-10-10T01:52:28;101061.63;;;10.68;68.81
28004;BME280;15330;51.234;6.754;2022-10-10T02:00:57;101053.03;;;10.56;69.08
28004;BME280;15330;51.234;6.754;2022-10-10T02:03:30;101057.59;;;10.63;69.19
28004;BME280;15330;51.234;6.754;2022-10-10T02:06:10;101056.28;;;10.68;69.03
28004;BME280;15330;51.234;6.754;2022-10-10T02:08:45;101053.75;;;10.40;69.41
28004;BME280;15330;51.234;6.754;2022-10-10T02:11:13;101052.28;;;10.72;68.83
28004;BME280;15330;51.234;6.754;2022-10-10T02:13:48;101044.63;;;10.51;69.08
28004;BME280;15330;51.234;6.754;2022-10-10T02:16:37;101047.88;;;10.62;68.96
28004;BME280;15330;51.234;6.754;2022-10-10T02:19:02;101047.78;;;10.46;69.59
28004;BME280;15330;51.234;6.754;2022-10-10T02:21:31;101047.19;;;10.60;69.20
28004;BME280;15330;51.234;6.754;2022-10-10T02:24:01;101042.69;;;10.35;69.60
28004;BME280;15330;51.234;6.754;2022-10-10T02:26:30;101044.66;;;10.59;69.08
28004;BME280;15330;51.234;6.754;2022-10-10T02:31:44;101042.59;;;10.45;69.67
28004;BME280;15330;51.234;6.754;2022-10-10T02:34:17;101037.28;;;10.53;69.21
28004;BME280;15330;51.234;6.754;2022-10-10T02:36:48;101027.44;;;10.53;69.34
28004;BME280;15330;51.234;6.754;2022-10-10T02:39:16;101031.69;;;10.38;69.68
28004;BME280;15330;51.234;6.754;2022-10-10T02:41:45;101023.97;;;10.35;69.83
28004;BME280;15330;51.234;6.754;2022-10-10T02:44:13;101020.50;;;10.43;69.70
28004;BME280;15330;51.234;6.754;2022-10-10T02:46:38;101024.31;;;10.40;69.60
28004;BME280;15330;51.234;6.754;2022-10-10T02:49:07;101022.19;;;10.44;69.61
28004;BME280;15330;51.234;6.754;2022-10-10T02:51:33;101026.63;;;10.35;69.91
28004;BME280;15330;51.234;6.754;2022-10-10T02:53:59;101017.97;;;10.41;69.57
28004;BME280;15330;51.234;6.754;2022-10-10T02:56:24;101017.03;;;10.50;69.63
28004;BME280;15330;51.234;6.754;2022-10-10T02:58:49;101016.31;;;10.40;69.88
28004;BME280;15330;51.234;6.754;2022-10-10T03:01:15;101018.53;;;10.45;69.48
28004;BME280;15330;51.234;6.754;2022-10-10T03:03:40;101019.97;;;10.39;69.94
28004;BME280;15330;51.234;6.754;2022-10-10T03:06:06;101001.88;;;10.33;70.27
28004;BME280;15330;51.234;6.754;2022-10-10T03:08:31;101007.34;;;10.23;70.36
28004;BME280;15330;51.234;6.754;2022-10-10T03:10:59;101007.78;;;10.37;69.99
28004;BME280;15330;51.234;6.754;2022-10-10T03:13:25;101003.66;;;10.50;69.63
28004;BME280;15330;51.234;6.754;2022-10-10T03:15:51;101008.00;;;10.51;69.86
28004;BME280;15330;51.234;6.754;2022-10-10T03:18:16;101003.41;;;10.36;70.02
28004;BME280;15330;51.234;6.754;2022-10-10T03:20:48;100996.47;;;10.51;69.58
28004;BME280;15330;51.234;6.754;2022-10-10T03:23:14;101002.22;;;10.56;69.86
28004;BME280;15330;51.234;6.754;2022-10-10T03:25:41;101017.28;;;10.39;70.21
28004;BME280;15330;51.234;6.754;2022-10-10T03:28:07;100999.59;;;10.38;70.27
28004;BME280;15330;51.234;6.754;2022-10-10T03:30:33;101004.88;;;10.30;70.85
28004;BME280;15330;51.234;6.754;2022-10-10T03:32:58;101013.78;;;10.39;70.41
28004;BME280;15330;51.234;6.754;2022-10-10T03:35:24;101008.13;;;10.42;70.30
28004;BME280;15330;51.234;6.754;2022-10-10T03:37:49;100998.97;;;10.44;70.62
28004;BME280;15330;51.234;6.754;2022-10-10T03:40:14;101002.72;;;10.34;70.78
28004;BME280;15330;51.234;6.754;2022-10-10T03:42:40;101003.13;;;10.21;71.45
28004;BME280;15330;51.234;6.754;2022-10-10T03:45:05;101005.19;;;10.27;71.24
28004;BME280;15330;51.234;6.754;2022-10-10T03:47:31;101006.50;;;10.23;71.59
28004;BME280;15330;51.234;6.754;2022-10-10T03:49:56;100999.09;;;10.17;71.79
28004;BME280;15330;51.234;6.754;2022-10-10T03:52:21;100998.78;;;10.20;71.55
28004;BME280;15330;51.234;6.754;2022-10-10T03:54:47;100998.69;;;10.29;71.36
28004;BME280;15330;51.234;6.754;2022-10-10T03:57:12;100993.88;;;10.15;71.97
28004;BME280;15330;51.234;6.754;2022-10-10T03:59:37;100994.03;;;10.14;72.38
28004;BME280;15330;51.234;6.754;2022-10-10T04:02:03;101002.31;;;10.03;72.78
28004;BME280;15330;51.234;6.754;2022-10-10T04:04:28;101000.16;;;10.06;72.49
28004;BME280;15330;51.234;6.754;2022-10-10T04:06:53;100988.78;;;10.22;72.17
28004;BME280;15330;51.234;6.754;2022-10-10T04:09:19;100991.59;;;10.20;72.53
28004;BME280;15330;51.234;6.754;2022-10-10T04:11:44;100987.41;;;10.18;72.33
28004;BME280;15330;51.234;6.754;2022-10-10T04:14:09;100988.63;;;10.23;72.25
28004;BME280;15330;51.234;6.754;2022-10-10T04:16:35;100996.22;;;9.92;73.52
28004;BME280;15330;51.234;6.754;2022-10-10T04:19:00;100998.63;;;10.04;73.30
28004;BME280;15330;51.234;6.754;2022-10-10T04:21:26;100983.94;;;10.08;73.36
28004;BME280;15330;51.234;6.754;2022-10-10T04:23:51;100993.16;;;9.87;74.05
28004;BME280;15330;51.234;6.754;2022-10-10T04:26:17;100998.84;;;10.10;73.28
28004;BME280;15330;51.234;6.754;2022-10-10T04:28:42;100998.41;;;10.15;73.59
28004;BME280;15330;51.234;6.754;2022-10-10T04:31:07;100992.75;;;10.44;72.49
28004;BME280;15330;51.234;6.754;2022-10-10T04:33:33;100992.34;;;10.30;72.90
28004;BME280;15330;51.234;6.754;2022-10-10T04:35:58;100992.69;;;10.27;73.03
28004;BME280;15330;51.234;6.754;2022-10-10T04:38:24;100986.25;;;10.20;73.26
28004;BME280;15330;51.234;6.754;2022-10-10T04:40:49;100984.97;;;10.24;72.94
28004;BME280;15330;51.234;6.754;2022-10-10T04:43:15;100985.34;;;10.12;73.96
28004;BME280;15330;51.234;6.754;2022-10-10T04:45:40;100988.31;;;10.26;73.39
28004;BME280;15330;51.234;6.754;2022-10-10T04:48:06;100982.22;;;9.99;74.25
28004;BME280;15330;51.234;6.754;2022-10-10T04:50:31;100982.06;;;10.00;74.48
28004;BME280;15330;51.234;6.754;2022-10-10T04:52:57;100983.72;;;10.19;74.33
28004;BME280;15330;51.234;6.754;2022-10-10T04:55:22;100988.84;;;10.12;74.06
28004;BME280;15330;51.234;6.754;2022-10-10T04:57:48;100983.34;;;10.14;74.65
28004;BME280;15330;51.234;6.754;2022-10-10T05:00:13;100985.72;;;9.99;74.99
28004;BME280;15330;51.234;6.754;2022-10-10T05:02:38;100988.84;;;10.12;74.31
28004;BME280;15330;51.234;6.754;2022-10-10T05:05:04;100995.47;;;10.08;74.70
28004;BME280;15330;51.234;6.754;2022-10-10T05:07:30;100998.09;;;10.00;75.26
28004;BME280;15330;51.234;6.754;2022-10-10T05:09:55;100997.16;;;10.09;74.94
28004;BME280;15330;51.234;6.754;2022-10-10T05:12:20;101000.25;;;9.97;75.51
28004;BME280;15330;51.234;6.754;2022-10-10T05:14:46;100997.41;;;9.98;75.19
28004;BME280;15330;51.234;6.754;2022-10-10T05:17:11;100997.88;;;9.93;75.79
28004;BME280;15330;51.234;6.754;2022-10-10T05:19:36;100984.81;;;9.90;75.79
28004;BME280;15330;51.234;6.754;2022-10-10T05:22:02;100988.13;;;9.84;76.12
28004;BME280;15330;51.234;6.754;2022-10-10T05:24:27;100995.13;;;10.03;75.71
28004;BME280;15330;51.234;6.754;2022-10-10T05:26:52;100986.47;;;10.09;75.63
28004;BME280;15330;51.234;6.754;2022-10-10T05:29:18;100988.56;;;9.98;75.78
28004;BME280;15330;51.234;6.754;2022-10-10T05:31:43;100982.16;;;9.90;76.64
28004;BME280;15330;51.234;6.754;2022-10-10T05:34:13;100989.88;;;9.93;76.54
28004;BME280;15330;51.234;6.754;2022-10-10T05:36:42;100993.38;;;9.76;77.10
28004;BME280;15330;51.234;6.754;2022-10-10T05:39:07;100987.34;;;9.92;76.81
28004;BME280;15330;51.234;6.754;2022-10-10T05:41:33;100991.78;;;9.83;77.10
28004;BME280;15330;51.234;6.754;2022-10-10T05:43:59;100991.09;;;9.81;76.98
28004;BME280;15330;51.234;6.754;2022-10-10T05:46:24;100994.41;;;9.75;77.21
28004;BME280;15330;51.234;6.754;2022-10-10T05:48:52;100990.16;;;9.90;76.68
28004;BME280;15330;51.234;6.754;2022-10-10T05:51:18;100990.88;;;9.75;77.55
28004;BME280;15330;51.234;6.754;2022-10-10T05:53:45;100985.31;;;9.86;77.05
28004;BME280;15330;51.234;6.754;2022-10-10T05:56:11;100994.13;;;9.86;77.17
28004;BME280;15330;51.234;6.754;2022-10-10T05:58:37;100997.25;;;10.00;77.32
28004;BME280;15330;51.234;6.754;2022-10-10T06:01:04;101002.31;;;9.67;78.10
28004;BME280;15330;51.234;6.754;2022-10-10T06:03:29;101000.88;;;9.73;77.73
28004;BME280;15330;51.234;6.754;2022-10-10T06:05:56;100995.94;;;10.21;76.74
28004;BME280;15330;51.234;6.754;2022-10-10T06:08:21;100993.59;;;10.01;77.02
28004;BME280;15330;51.234;6.754;2022-10-10T06:10:46;100991.91;;;10.17;76.57
28004;BME280;15330;51.234;6.754;2022-10-10T06:13:14;100999.78;;;10.19;76.17
28004;BME280;15330;51.234;6.754;2022-10-10T06:15:40;100998.19;;;10.26;76.01
28004;BME280;15330;51.234;6.754;2022-10-10T06:18:06;100994.34;;;10.11;76.74
28004;BME280;15330;51.234;6.754;2022-10-10T06:20:38;100995.00;;;10.30;76.44
28004;BME280;15330;51.234;6.754;2022-10-10T06:23:05;100996.75;;;10.40;75.74
28004;BME280;15330;51.234;6.754;2022-10-10T06:25:33;101008.69;;;10.79;75.02
28004;BME280;15330;51.234;6.754;2022-10-10T06:27:59;101004.16;;;10.80;74.91
28004;BME280;15330;51.234;6.754;2022-10-10T06:30:24;100995.81;;;10.83;74.77
28004;BME280;15330;51.234;6.754;2022-10-10T06:32:50;101005.88;;;10.55;75.72
28004;BME280;15330;51.234;6.754;2022-10-10T06:35:15;101006.38;;;11.34;73.14
28004;BME280;15330;51.234;6.754;2022-10-10T06:37:41;101003.09;;;11.65;71.35
28004;BME280;15330;51.234;6.754;2022-10-10T06:40:06;101009.66;;;11.87;71.15
28004;BME280;15330;51.234;6.754;2022-10-10T06:42:32;101004.41;;;12.58;67.93
28004;BME280;15330;51.234;6.754;2022-10-10T06:44:57;101009.09;;;12.64;67.67
28004;BME280;15330;51.234;6.754;2022-10-10T06:47:23;101017.97;;;12.73;68.04
28004;BME280;15330;51.234;6.754;2022-10-10T06:49:48;101019.50;;;13.76;64.79
28004;BME280;15330;51.234;6.754;2022-10-10T06:52:14;101018.78;;;13.82;63.88
28004;BME280;15330;51.234;6.754;2022-10-10T06:54:39;101021.72;;;13.95;63.78
28004;BME280;15330;51.234;6.754;2022-10-10T06:57:04;101014.22;;;14.81;61.58
28004;BME280;15330;51.234;6.754;2022-10-10T06:59:30;101007.03;;;14.88;61.62
28004;BME280;15330;51.234;6.754;2022-10-10T07:01:55;101017.16;;;16.08;57.30
28004;BME280;15330;51.234;6.754;2022-10-10T07:04:21;101006.66;;;15.05;59.09
28004;BME280;15330;51.234;6.754;2022-10-10T07:06:46;101011.00;;;15.93;57.91
28004;BME280;15330;51.234;6.754;2022-10-10T07:09:11;101019.78;;;15.81;57.60
28004;BME280;15330;51.234;6.754;2022-10-10T07:11:37;101010.19;;;16.21;56.23
28004;BME280;15330;51.234;6.754;2022-10-10T07:14:02;101018.84;;;14.20;61.95
28004;BME280;15330;51.234;6.754;2022-10-10T07:16:28;101014.63;;;15.28;59.62
28004;BME280;15330;51.234;6.754;2022-10-10T07:18:53;101020.91;;;15.86;57.48
28004;BME280;15330;51.234;6.754;2022-10-10T07:21:18;101020.97;;;14.24;61.64
28004;BME280;15330;51.234;6.754;2022-10-10T07:23:44;101026.06;;;14.57;60.67
28004;BME280;15330;51.234;6.754;2022-10-10T07:26:11;101019.97;;;15.58;58.90
28004;BME280;15330;51.234;6.754;2022-10-10T07:28:37;101020.47;;;15.32;59.37
28004;BME280;15330;51.234;6.754;2022-10-10T07:31:05;101021.84;;;15.78;58.30
28004;BME280;15330;51.234;6.754;2022-10-10T07:33:37;101021.66;;;15.44;59.36
28004;BME280;15330;51.234;6.754;2022-10-10T07:36:03;101029.69;;;13.89;63.77
28004;BME280;15330;51.234;6.754;2022-10-10T07:38:29;101017.06;;;15.59;59.69
28004;BME280;15330;51.234;6.754;2022-10-10T07:40:54;101018.25;;;15.35;60.40
28004;BME280;15330;51.234;6.754;2022-10-10T07:43:20;101020.69;;;14.86;60.71
28004;BME280;15330;51.234;6.754;2022-10-10T07:45:45;101027.94;;;15.51;59.33
28004;BME280;15330;51.234;6.754;2022-10-10T07:48:11;101025.66;;;16.05;58.35
28004;BME280;15330;51.234;6.754;2022-10-10T07:50:40;101036.13;;;15.58;59.88
28004;BME280;15330;51.234;6.754;2022-10-10T07:53:06;101026.09;;;15.01;61.40
28004;BME280;15330;51.234;6.754;2022-10-10T07:55:32;101038.28;;;14.45;62.08
28004;BME280;15330;51.234;6.754;2022-10-10T07:57:58;101026.94;;;15.01;61.36
28004;BME280;15330;51.234;6.754;2022-10-10T08:00:23;101027.59;;;15.39;60.54
28004;BME280;15330;51.234;6.754;2022-10-10T08:02:49;101027.75;;;15.67;60.10
28004;BME280;15330;51.234;6.754;2022-10-10T08:05:16;101029.19;;;15.85;59.57
28004;BME280;15330;51.234;6.754;2022-10-10T08:07:41;101029.31;;;16.75;56.62
28004;BME280;15330;51.234;6.754;2022-10-10T08:10:07;101027.13;;;16.08;58.55
28004;BME280;15330;51.234;6.754;2022-10-10T08:12:34;101030.72;;;16.43;57.38
28004;BME280;15330;51.234;6.754;2022-10-10T08:14:59;101035.56;;;14.97;61.86
28004;BME280;15330;51.234;6.754;2022-10-10T08:17:25;101027.34;;;16.34;58.91
28004;BME280;15330;51.234;6.754;2022-10-10T08:19:50;101034.47;;;16.42;57.58
28004;BME280;15330;51.234;6.754;2022-10-10T08:22:15;101025.22;;;17.87;54.97
28004;BME280;15330;51.234;6.754;2022-10-10T08:24:43;101031.19;;;17.09;56.38
28004;BME280;15330;51.234;6.754;2022-10-10T08:27:09;101047.56;;;18.16;53.24
28004;BME280;15330;51.234;6.754;2022-10-10T08:29:34;101032.78;;;16.97;55.37
28004;BME280;15330;51.234;6.754;2022-10-10T08:31:59;101044.41;;;17.32;55.47
28004;BME280;15330;51.234;6.754;2022-10-10T08:34:25;101044.56;;;17.78;53.42
28004;BME280;15330;51.234;6.754;2022-10-10T08:36:50;101044.88;;;17.48;54.15
28004;BME280;15330;51.234;6.754;2022-10-10T08:39:16;101045.53;;;18.57;51.83
28004;BME280;15330;51.234;6.754;2022-10-10T08:41:54;101049.88;;;17.51;53.08
28004;BME280;15330;51.234;6.754;2022-10-10T08:44:36;101042.00;;;19.28;50.25
28004;BME280;15330;51.234;6.754;2022-10-10T08:49:45;101042.47;;;19.12;50.16
28004;BME280;15330;51.234;6.754;2022-10-10T08:52:29;101052.25;;;20.40;46.81
28004;BME280;15330;51.234;6.754;2022-10-10T08:54:57;101051.63;;;20.38;47.02
28004;BME280;15330;51.234;6.754;2022-10-10T08:57:29;101046.59;;;20.84;45.24
28004;BME280;15330;51.234;6.754;2022-10-10T09:00:09;101043.53;;;21.36;45.22
28004;BME280;15330;51.234;6.754;2022-10-10T09:02:56;101047.94;;;24.17;39.89
28004;BME280;15330;51.234;6.754;2022-10-10T09:13:33;101042.63;;;25.37;36.76
28004;BME280;15330;51.234;6.754;2022-10-10T09:16:32;101044.22;;;26.04;34.80
28004;BME280;15330;51.234;6.754;2022-10-10T09:21:23;101049.91;;;25.97;35.20
28004;BME280;15330;51.234;6.754;2022-10-10T09:26:27;101050.66;;;26.19;34.75
28004;BME280;15330;51.234;6.754;2022-10-10T09:28:57;101056.28;;;25.54;35.47
28004;BME280;15330;51.234;6.754;2022-10-10T09:31:43;101051.56;;;27.51;32.64
28004;BME280;15330;51.234;6.754;2022-10-10T09:34:18;101053.19;;;29.99;29.36
28004;BME280;15330;51.234;6.754;2022-10-10T09:36:46;101065.63;;;26.07;33.36
28004;BME280;15330;51.234;6.754;2022-10-10T09:39:18;101067.25;;;26.03;33.88
28004;BME280;15330;51.234;6.754;2022-10-10T09:41:53;101054.44;;;29.68;29.90
28004;BME280;15330;51.234;6.754;2022-10-10T09:44:20;101057.66;;;29.80;28.78
28004;BME280;15330;51.234;6.754;2022-10-10T09:46:46;101048.41;;;24.97;36.49
28004;BME280;15330;51.234;6.754;2022-10-10T09:49:16;101054.16;;;28.95;30.81
28004;BME280;15330;51.234;6.754;2022-10-10T09:51:45;101057.06;;;24.56;37.14
28004;BME280;15330;51.234;6.754;2022-10-10T09:54:16;101060.47;;;25.18;36.95
28004;BME280;15330;51.234;6.754;2022-10-10T09:57:02;101059.69;;;23.20;40.82
28004;BME280;15330;51.234;6.754;2022-10-10T10:02:18;101060.53;;;22.86;41.30
28004;BME280;15330;51.234;6.754;2022-10-10T10:04:45;101053.72;;;25.26;37.52
28004;BME280;15330;51.234;6.754;2022-10-10T10:09:50;101051.09;;;29.01;31.44
28004;BME280;15330;51.234;6.754;2022-10-10T10:12:21;101058.66;;;27.47;33.46
28004;BME280;15330;51.234;6.754;2022-10-10T10:14:48;101051.44;;;27.26;32.93
28004;BME280;15330;51.234;6.754;2022-10-10T10:17:15;101052.81;;;28.82;31.09
28004;BME280;15330;51.234;6.754;2022-10-10T10:19:45;101051.97;;;28.10;31.83
28004;BME280;15330;51.234;6.754;2022-10-10T10:24:49;101049.81;;;28.53;30.77
28004;BME280;15330;51.234;6.754;2022-10-10T10:27:20;101060.25;;;27.33;33.03
28004;BME280;15330;51.234;6.754;2022-10-10T10:29:56;101065.00;;;26.95;34.41
28004;BME280;15330;51.234;6.754;2022-10-10T10:32:42;101054.63;;;27.65;33.21
28004;BME280;15330;51.234;6.754;2022-10-10T10:35:26;101060.94;;;29.87;30.20
28004;BME280;15330;51.234;6.754;2022-10-10T10:40:39;101067.97;;;23.77;40.81
28004;BME280;15330;51.234;6.754;2022-10-10T10:44:14;101065.91;;;24.96;38.63
28004;BME280;15330;51.234;6.754;2022-10-10T10:49:09;101068.34;;;24.26;39.65
28004;BME280;15330;51.234;6.754;2022-10-10T10:52:02;101076.34;;;22.19;43.92
28004;BME280;15330;51.234;6.754;2022-10-10T10:57:25;101071.25;;;22.11;44.81
28004;BME280;15330;51.234;6.754;2022-10-10T11:02:49;101069.16;;;21.46;47.19
28004;BME280;15330;51.234;6.754;2022-10-10T11:16:36;101076.38;;;22.30;44.18
28004;BME280;15330;51.234;6.754;2022-10-10T11:24:37;101076.53;;;20.28;50.11
28004;BME280;15330;51.234;6.754;2022-10-10T11:27:12;101079.19;;;20.10;50.34
28004;BME280;15330;51.234;6.754;2022-10-10T11:30:19;101071.53;;;21.00;49.06
28004;BME280;15330;51.234;6.754;2022-10-10T11:32:57;101071.63;;;20.68;49.78
28004;BME280;15330;51.234;6.754;2022-10-10T11:35:41;101066.69;;;20.83;49.13
28004;BME280;15330;51.234;6.754;2022-10-10T11:40:45;101064.34;;;20.12;50.89
28004;BME280;15330;51.234;6.754;2022-10-10T11:43:16;101067.28;;;20.11;51.61
28004;BME280;15330;51.234;6.754;2022-10-10T11:45:45;101064.50;;;19.86;52.42
28004;BME280;15330;51.234;6.754;2022-10-10T11:48:47;101063.63;;;19.54;52.70
28004;BME280;15330;51.234;6.754;2022-10-10T11:51:13;101065.63;;;19.72;52.72
28004;BME280;15330;51.234;6.754;2022-10-10T11:53:43;101060.28;;;19.59;53.08
28004;BME280;15330;51.234;6.754;2022-10-10T11:56:31;101059.00;;;19.61;53.54
28004;BME280;15330;51.234;6.754;2022-10-10T11:59:16;101062.22;;;19.38;54.16
28004;BME280;15330;51.234;6.754;2022-10-10T12:01:48;101057.16;;;19.42;53.99
28004;BME280;15330;51.234;6.754;2022-10-10T12:04:16;101061.94;;;19.53;53.70
28004;BME280;15330;51.234;6.754;2022-10-10T12:06:46;101065.53;;;19.40;53.34
28004;BME280;15330;51.234;6.754;2022-10-10T12:09:18;101065.91;;;19.57;53.70
28004;BME280;15330;51.234;6.754;2022-10-10T12:11:51;101068.84;;;19.56;54.01
28004;BME280;15330;51.234;6.754;2022-10-10T12:14:21;101068.41;;;19.59;53.25
28004;BME280;15330;51.234;6.754;2022-10-10T12:16:49;101063.97;;;19.71;53.20
28004;BME280;15330;51.234;6.754;2022-10-10T12:19:24;101068.41;;;19.52;53.44
28004;BME280;15330;51.234;6.754;2022-10-10T12:21:54;101071.66;;;19.74;53.30
28004;BME280;15330;51.234;6.754;2022-10-10T12:24:20;101066.34;;;19.92;52.84
28004;BME280;15330;51.234;6.754;2022-10-10T12:27:09;101069.84;;;19.99;52.88
28004;BME280;15330;51.234;6.754;2022-10-10T12:40:00;101061.16;;;19.39;54.12
28004;BME280;15330;51.234;6.754;2022-10-10T12:48:02;101055.84;;;19.64;53.71
28004;BME280;15330;51.234;6.754;2022-10-10T12:50:36;101069.94;;;20.17;51.80
28004;BME280;15330;51.234;6.754;2022-10-10T12:55:39;101049.81;;;20.25;51.92
28004;BME280;15330;51.234;6.754;2022-10-10T12:58:16;101057.56;;;20.53;51.48
28004;BME280;15330;51.234;6.754;2022-10-10T13:00:46;101044.03;;;20.89;50.80
28004;BME280;15330;51.234;6.754;2022-10-10T13:05:48;101049.38;;;20.28;51.59
28004;BME280;15330;51.234;6.754;2022-10-10T13:08:24;101047.19;;;20.43;51.72
28004;BME280;15330;51.234;6.754;2022-10-10T13:13:35;101053.28;;;20.39;51.88
28004;BME280;15330;51.234;6.754;2022-10-10T13:16:10;101053.00;;;20.47;52.30
28004;BME280;15330;51.234;6.754;2022-10-10T13:18:56;101056.13;;;20.75;51.46
28004;BME280;15330;51.234;6.754;2022-10-10T13:21:28;101053.75;;;20.29;51.80
28004;BME280;15330;51.234;6.754;2022-10-10T13:24:02;101053.44;;;20.69;51.42
28004;BME280;15330;51.234;6.754;2022-10-10T13:26:33;101057.41;;;21.09;50.90
28004;BME280;15330;51.234;6.754;2022-10-10T13:29:20;101057.69;;;21.26;49.75
28004;BME280;15330;51.234;6.754;2022-10-10T13:31:46;101056.56;;;21.09;50.27
28004;BME280;15330;51.234;6.754;2022-10-10T13:34:16;101070.47;;;20.82;50.95
28004;BME280;15330;51.234;6.754;2022-10-10T13:36:43;101077.44;;;20.97;50.13
28004;BME280;15330;51.234;6.754;2022-10-10T13:39:14;101066.41;;;20.92;50.64
28004;BME280;15330;51.234;6.754;2022-10-10T13:41:43;101063.22;;;20.76;50.26
28004;BME280;15330;51.234;6.754;2022-10-10T13:44:15;101079.09;;;20.55;51.40
28004;BME280;15330;51.234;6.754;2022-10-10T13:46:45;101079.88;;;20.62;51.89
28004;BME280;15330;51.234;6.754;2022-10-10T13:49:26;101083.50;;;20.17;52.62
28004;BME280;15330;51.234;6.754;2022-10-10T13:52:04;101080.28;;;20.02;52.63
28004;BME280;15330;51.234;6.754;2022-10-10T13:57:12;101084.03;;;19.63;53.05
28004;BME280;15330;51.234;6.754;2022-10-10T13:59:39;101078.84;;;20.00;53.29
28004;BME280;15330;51.234;6.754;2022-10-10T14:02:14;101075.66;;;19.71;52.94
28004;BME280;15330;51.234;6.754;2022-10-10T14:04:51;101076.75;;;19.95;52.37
28004;BME280;15330;51.234;6.754;2022-10-10T14:07:23;101083.50;;;19.86;52.81
28004;BME280;15330;51.234;6.754;2022-10-10T14:12:26;101090.47;;;20.07;52.71
28004;BME280;15330;51.234;6.754;2022-10-10T14:14:55;101096.66;;;19.89;53.29
28004;BME280;15330;51.234;6.754;2022-10-10T14:17:21;101095.25;;;20.11;53.11
28004;BME280;15330;51.234;6.754;2022-10-10T14:19:48;101104.31;;;20.30;52.82
28004;BME280;15330;51.234;6.754;2022-10-10T14:22:13;101108.44;;;20.08;53.82
28004;BME280;15330;51.234;6.754;2022-10-10T14:24:39;101108.91;;;19.60;53.81
28004;BME280;15330;51.234;6.754;2022-10-10T14:27:14;101114.25;;;19.80;53.51
28004;BME280;15330;51.234;6.754;2022-10-10T14:29:39;101126.38;;;19.77;54.46
28004;BME280;15330;51.234;6.754;2022-10-10T14:32:05;101128.13;;;19.52;54.35
28004;BME280;15330;51.234;6.754;2022-10-10T14:34:31;101134.03;;;19.16;55.03
28004;BME280;15330;51.234;6.754;2022-10-10T14:36:56;101139.25;;;19.11;55.20
28004;BME280;15330;51.234;6.754;2022-10-10T14:39:21;101146.38;;;18.73;55.95
28004;BME280;15330;51.234;6.754;2022-10-10T14:41:47;101146.59;;;18.78;55.64